Time;durP1;ratioP1;P1;durP2;ratioP2;P2;SDS_P1;SDS_P2;PMS_P1;PMS_P2;Temp;Humidity;BMP_temperature;BMP_pressure;BME280_temperature;BME280_humidity;BME280_pressure;Samples;Min_cycle;Max_cycle;Signal;HPM_P1;HPM_P2
2021/06/25 00:00:46;;;;;;;6.03;3.10;;;25.40;61.10;;;;;;5011388;28;20030;-51
2021/06/25 00:03:12;;;;;;;7.68;3.00;;;25.30;61.10;;;;;;5011192;28;20372;-52
2021/06/25 00:05:37;;;;;;;4.13;2.65;;;25.30;61.40;;;;;;4993691;28;20037;-49
2021/06/25 00:08:03;;;;;;;7.80;2.80;;;25.20;61.20;;;;;;5011212;28;20033;-47
2021/06/25 00:10:29;;;;;;;6.20;2.72;;;25.30;61.00;;;;;;5010805;28;20026;-52
2021/06/25 00:12:55;;;;;;;4.00;2.33;;;25.20;61.40;;;;;;5011360;28;20034;-51
2021/06/25 00:15:21;;;;;;;4.93;2.67;;;25.20;60.50;;;;;;5011519;28;20112;-53
2021/06/25 00:17:47;;;;;;;8.57;2.70;;;25.30;60.40;;;;;;4993846;28;20387;-49
2021/06/25 00:20:14;;;;;;;4.97;2.47;;;25.20;60.40;;;;;;5009755;28;20469;-48
2021/06/25 00:22:42;;;;;;;5.55;2.70;;;25.20;59.30;;;;;;5011560;28;20495;-47
2021/06/25 00:25:09;;;;;;;6.50;2.50;;;25.20;59.20;;;;;;5015156;28;20133;-52
2021/06/25 00:27:34;;;;;;;5.30;2.30;;;25.10;59.00;;;;;;5014845;28;20061;-52
2021/06/25 00:30:00;;;;;;;6.35;2.35;;;25.00;59.40;;;;;;5014572;28;20111;-50
2021/06/25 00:32:26;;;;;;;8.98;2.20;;;25.00;59.20;;;;;;5014569;28;20026;-55
2021/06/25 00:34:52;;;;;;;4.03;2.28;;;25.00;58.60;;;;;;5014714;28;20029;-50
2021/06/25 00:37:17;;;;;;;6.22;2.53;;;25.00;58.30;;;;;;5014560;28;20457;-54
2021/06/25 00:39:43;;;;;;;4.60;2.10;;;24.90;57.80;;;;;;5015283;28;20509;-55
2021/06/25 00:42:10;;;;;;;4.38;2.10;;;24.80;57.60;;;;;;5014538;28;20101;-61
2021/06/25 00:44:42;;;;;;;4.85;2.10;;;24.70;57.70;;;;;;5014905;28;20037;-52
2021/06/25 00:47:09;;;;;;;3.80;2.30;;;24.70;57.90;;;;;;5014677;28;20058;-53
2021/06/25 00:49:37;;;;;;;4.72;2.28;;;24.70;57.70;;;;;;5013406;28;20508;-54
2021/06/25 00:52:04;;;;;;;3.10;2.22;;;24.70;57.90;;;;;;5013634;28;20037;-55
2021/06/25 00:54:30;;;;;;;3.90;2.05;;;24.70;57.80;;;;;;5014321;28;20189;-48
2021/06/25 00:56:56;;;;;;;6.45;2.75;;;24.60;58.00;;;;;;5014835;28;20500;-51
2021/06/25 00:59:23;;;;;;;7.57;2.60;;;24.60;58.30;;;;;;4996799;28;20034;-57
2021/06/25 01:01:49;;;;;;;5.50;2.75;;;24.60;58.20;;;;;;5014951;28;20025;-48
2021/06/25 01:04:15;;;;;;;5.47;2.90;;;24.60;58.60;;;;;;5014015;28;20109;-51
2021/06/25 01:06:41;;;;;;;5.32;3.28;;;24.70;58.40;;;;;;4980501;28;20065;-51
2021/06/25 01:09:08;;;;;;;7.45;3.15;;;24.60;58.80;;;;;;4996751;28;20033;-54
2021/06/25 01:11:35;;;;;;;4.00;2.70;;;24.60;58.80;;;;;;5012635;28;20032;-54
2021/06/25 01:14:01;;;;;;;4.82;2.72;;;24.60;59.00;;;;;;5014055;28;20028;-54
2021/06/25 01:16:28;;;;;;;6.05;3.03;;;24.60;59.30;;;;;;5013732;28;20061;-48
2021/06/25 01:18:54;;;;;;;5.70;3.15;;;24.60;59.10;;;;;;5014571;28;20081;-53
2021/06/25 01:21:20;;;;;;;5.97;3.40;;;24.60;59.20;;;;;;5013874;28;20058;-51
2021/06/25 01:23:46;;;;;;;4.10;3.15;;;24.60;59.30;;;;;;5011864;28;20158;-53
2021/06/25 01:26:12;;;;;;;3.78;2.90;;;24.60;59.30;;;;;;5010753;28;20026;-52
2021/06/25 01:28:38;;;;;;;5.35;3.50;;;24.70;59.30;;;;;;4996308;28;20038;-48
2021/06/25 01:31:05;;;;;;;3.35;2.72;;;24.70;59.20;;;;;;4996451;28;20045;-50
2021/06/25 01:33:33;;;;;;;9.45;2.83;;;24.70;59.60;;;;;;4996314;28;20057;-51
2021/06/25 01:35:59;;;;;;;4.80;2.80;;;24.70;59.50;;;;;;5013060;28;20018;-50
2021/06/25 01:38:25;;;;;;;4.90;3.15;;;24.70;59.10;;;;;;5014019;28;20084;-51
2021/06/25 01:40:52;;;;;;;5.82;2.80;;;24.80;58.90;;;;;;5013922;28;20033;-50
2021/06/25 01:43:18;;;;;;;4.03;2.90;;;24.60;59.20;;;;;;5012268;28;20026;-50
2021/06/25 01:45:44;;;;;;;4.30;3.10;;;24.60;59.10;;;;;;5013994;28;20109;-54
2021/06/25 01:48:11;;;;;;;3.30;2.92;;;24.60;59.10;;;;;;5013720;28;20109;-52
2021/06/25 01:50:39;;;;;;;6.20;2.90;;;24.40;59.50;;;;;;5013659;28;20033;-50
2021/06/25 01:53:11;;;;;;;8.02;3.35;;;24.40;59.90;;;;;;5013711;28;20468;-52
2021/06/25 01:55:41;;;;;;;5.45;3.70;;;24.40;59.80;;;;;;5012930;28;20496;-50
2021/06/25 01:58:12;;;;;;;6.93;3.50;;;24.40;59.70;;;;;;5013640;28;20510;-50
2021/06/25 02:00:40;;;;;;;5.65;3.53;;;24.40;60.00;;;;;;4995620;28;20022;-45
2021/06/25 02:03:06;;;;;;;4.43;2.92;;;24.30;60.10;;;;;;5013698;28;20467;-48
2021/06/25 02:05:32;;;;;;;5.60;3.42;;;24.30;60.70;;;;;;5013138;28;20032;-48
2021/06/25 02:07:58;;;;;;;4.53;3.38;;;24.30;60.50;;;;;;5013520;28;20433;-45
2021/06/25 02:10:24;;;;;;;4.60;3.17;;;24.30;60.50;;;;;;5012924;28;20046;-49
2021/06/25 02:12:49;;;;;;;5.93;3.65;;;24.40;60.30;;;;;;5013193;28;20033;-47
2021/06/25 02:15:16;;;;;;;5.30;3.13;;;24.30;60.40;;;;;;5012954;28;20495;-60
2021/06/25 02:17:41;;;;;;;5.18;3.58;;;24.30;60.80;;;;;;5012874;28;20050;-47
2021/06/25 02:20:09;;;;;;;5.32;3.17;;;24.30;60.80;;;;;;5012677;28;20061;-49
2021/06/25 02:22:35;;;;;;;4.43;3.22;;;24.30;61.10;;;;;;5012632;28;20044;-46
2021/06/25 02:25:02;;;;;;;6.32;3.60;;;24.30;61.00;;;;;;5013271;28;20026;-53
2021/06/25 02:27:28;;;;;;;4.57;3.17;;;24.30;61.50;;;;;;5012690;28;20026;-52
2021/06/25 02:29:54;;;;;;;5.63;3.38;;;24.30;61.10;;;;;;5013250;28;20040;-53
2021/06/25 02:32:19;;;;;;;6.47;4.07;;;24.30;61.10;;;;;;5012616;28;20502;-49
2021/06/25 02:34:45;;;;;;;6.72;3.80;;;24.40;60.60;;;;;;5013397;28;20037;-51
2021/06/25 02:37:11;;;;;;;8.00;3.20;;;24.40;60.60;;;;;;4995548;28;20033;-52
2021/06/25 02:39:37;;;;;;;6.18;3.85;;;24.40;61.20;;;;;;4995074;28;20277;-50
2021/06/25 02:42:04;;;;;;;4.22;3.42;;;24.40;60.60;;;;;;5013140;28;20076;-51
2021/06/25 02:44:30;;;;;;;4.93;3.25;;;24.40;60.40;;;;;;5012350;28;20058;-49
2021/06/25 02:46:56;;;;;;;4.95;3.75;;;24.50;60.30;;;;;;5013127;28;20060;-52
2021/06/25 02:49:21;;;;;;;4.82;3.10;;;24.50;60.30;;;;;;5012255;28;20520;-47
2021/06/25 02:51:47;;;;;;;5.43;3.25;;;24.50;60.40;;;;;;5012911;28;20030;-52
2021/06/25 02:54:13;;;;;;;6.88;2.85;;;24.50;60.50;;;;;;5012566;28;20022;-49
2021/06/25 02:56:39;;;;;;;4.95;3.10;;;24.50;60.50;;;;;;5012020;28;20030;-53
2021/06/25 02:59:04;;;;;;;7.20;3.08;;;24.50;61.00;;;;;;5012339;28;20042;-49
2021/06/25 03:01:30;;;;;;;4.28;2.60;;;24.40;60.90;;;;;;5011677;28;20384;-53
2021/06/25 03:03:56;;;;;;;3.47;2.70;;;24.50;61.00;;;;;;5012468;28;20083;-56
2021/06/25 03:06:22;;;;;;;4.68;2.78;;;24.40;60.80;;;;;;5011774;28;20030;-50
2021/06/25 03:08:48;;;;;;;3.15;2.58;;;24.40;60.80;;;;;;4994902;28;20037;-53
2021/06/25 03:11:13;;;;;;;4.90;2.58;;;24.40;60.80;;;;;;5012078;28;20566;-52
2021/06/25 03:13:39;;;;;;;4.28;2.80;;;24.40;60.90;;;;;;5011603;28;20029;-49
2021/06/25 03:16:05;;;;;;;4.10;2.53;;;24.40;60.70;;;;;;4994811;28;20511;-49
2021/06/25 03:18:31;;;;;;;4.63;2.75;;;24.50;60.60;;;;;;4994028;28;20147;-51
2021/06/25 03:20:57;;;;;;;4.15;2.63;;;24.50;60.30;;;;;;5012281;28;20057;-49
2021/06/25 03:23:23;;;;;;;5.22;2.50;;;24.50;60.20;;;;;;4994225;28;20026;-49
2021/06/25 03:25:49;;;;;;;4.35;2.60;;;24.40;60.20;;;;;;5012313;28;20487;-50
2021/06/25 03:28:14;;;;;;;4.13;2.70;;;24.40;60.60;;;;;;5011866;28;20080;-49
2021/06/25 03:30:40;;;;;;;4.35;2.60;;;24.40;60.60;;;;;;5011637;28;20030;-52
2021/06/25 03:33:07;;;;;;;3.75;2.30;;;24.40;60.60;;;;;;5012132;28;20427;-48
2021/06/25 03:35:32;;;;;;;6.35;2.40;;;24.40;60.60;;;;;;5011957;28;20376;-51
2021/06/25 03:37:58;;;;;;;5.40;2.60;;;24.30;61.00;;;;;;5012458;28;20022;-48
2021/06/25 03:40:27;;;;;;;4.82;2.80;;;24.30;61.20;;;;;;5011860;28;20037;-51
2021/06/25 03:42:53;;;;;;;5.93;2.60;;;24.20;61.60;;;;;;5012340;28;20021;-50
2021/06/25 03:45:19;;;;;;;4.13;2.70;;;24.30;61.60;;;;;;4994533;28;20026;-47
2021/06/25 03:47:44;;;;;;;5.47;2.85;;;24.20;61.70;;;;;;5012208;28;20041;-47
2021/06/25 03:50:12;;;;;;;4.22;2.97;;;24.30;61.60;;;;;;5012470;28;20469;-48
2021/06/25 03:52:38;;;;;;;8.38;2.78;;;24.30;61.80;;;;;;5011714;28;20050;-46
2021/06/25 03:55:06;;;;;;;8.20;3.40;;;24.20;61.80;;;;;;5012435;28;20068;-50
2021/06/25 03:57:33;;;;;;;5.45;2.92;;;24.20;61.90;;;;;;5011502;28;20046;-49
2021/06/25 03:59:58;;;;;;;3.42;2.95;;;24.30;62.00;;;;;;4998386;28;20026;-46
2021/06/25 04:02:24;;;;;;;5.35;2.92;;;24.30;61.50;;;;;;5015502;28;20032;-51
2021/06/25 04:04:50;;;;;;;5.28;3.17;;;24.30;61.30;;;;;;4998471;28;20054;-50
2021/06/25 04:07:15;;;;;;;4.30;2.78;;;24.30;61.20;;;;;;5016117;28;20048;-50
2021/06/25 04:09:41;;;;;;;7.95;3.55;;;24.30;61.00;;;;;;4997804;28;20040;-51
2021/06/25 04:12:07;;;;;;;5.15;2.80;;;24.30;60.60;;;;;;5015917;28;20437;-53
2021/06/25 04:14:33;;;;;;;3.42;2.88;;;24.30;60.40;;;;;;5015566;28;20113;-49
2021/06/25 04:16:59;;;;;;;5.70;3.30;;;24.30;60.60;;;;;;5015659;28;20081;-50
2021/06/25 04:19:24;;;;;;;5.75;2.92;;;24.30;60.50;;;;;;5015217;28;20057;-49
2021/06/25 04:21:50;;;;;;;5.35;2.90;;;24.30;60.80;;;;;;5016026;28;20034;-47
2021/06/25 04:24:16;;;;;;;7.60;3.45;;;24.30;60.60;;;;;;4998026;28;20523;-47
2021/06/25 04:26:43;;;;;;;5.30;3.20;;;24.10;60.60;;;;;;5015027;28;20026;-51
2021/06/25 04:29:11;;;;;;;3.50;2.90;;;24.20;60.50;;;;;;5015695;28;20029;-51
2021/06/25 04:31:39;;;;;;;6.55;2.67;;;24.30;60.30;;;;;;5014676;28;20045;-47
2021/06/25 04:36:49;;;;;;;3.72;2.70;;;24.40;59.60;;;;;;5015343;28;20105;-54
2021/06/25 04:39:14;;;;;;;7.25;2.95;;;24.40;59.60;;;;;;5015139;28;20511;-55
2021/06/25 04:41:40;;;;;;;4.72;2.47;;;24.40;59.30;;;;;;5014462;28;20080;-52
2021/06/25 04:44:06;;;;;;;4.85;2.67;;;24.40;59.20;;;;;;5014878;28;20033;-46
2021/06/25 04:46:33;;;;;;;3.60;2.40;;;24.40;59.00;;;;;;4997110;28;20461;-51
2021/06/25 04:48:59;;;;;;;2.70;2.30;;;24.40;59.00;;;;;;5015087;28;20034;-51
2021/06/25 04:51:25;;;;;;;2.97;2.30;;;24.40;58.80;;;;;;5014792;28;20168;-49
2021/06/25 04:53:52;;;;;;;4.22;2.40;;;24.50;58.80;;;;;;5015080;28;20116;-49
2021/06/25 04:56:18;;;;;;;5.10;3.03;;;24.50;58.60;;;;;;5014782;28;20034;-54
2021/06/25 04:58:44;;;;;;;7.45;2.75;;;24.50;58.30;;;;;;5013079;28;20045;-53
2021/06/25 05:01:10;;;;;;;4.65;2.80;;;24.50;58.60;;;;;;5015227;28;20384;-51
2021/06/25 05:03:39;;;;;;;6.10;2.80;;;24.60;58.40;;;;;;5014001;28;20025;-53
2021/06/25 05:06:05;;;;;;;5.70;2.63;;;24.60;58.30;;;;;;5014474;28;20076;-55
2021/06/25 05:08:31;;;;;;;5.22;3.10;;;24.50;58.30;;;;;;5014221;28;20038;-51
2021/06/25 05:10:56;;;;;;;4.60;2.78;;;24.50;58.20;;;;;;5013043;28;20028;-49
2021/06/25 05:13:22;;;;;;;4.85;3.05;;;24.50;58.60;;;;;;5014743;28;20026;-51
2021/06/25 05:15:48;;;;;;;7.63;2.80;;;24.50;58.60;;;;;;5014089;28;20384;-48
2021/06/25 05:18:15;;;;;;;6.88;2.90;;;24.50;58.50;;;;;;5014099;28;20049;-50
2021/06/25 05:20:42;;;;;;;4.10;2.80;;;24.60;58.10;;;;;;5013713;28;20026;-49
2021/06/25 05:23:10;;;;;;;4.15;2.90;;;24.60;58.20;;;;;;4996481;28;20028;-53
2021/06/25 05:25:36;;;;;;;3.30;2.45;;;24.60;58.30;;;;;;4996240;28;20108;-52
2021/06/25 05:28:02;;;;;;;7.07;2.75;;;24.60;58.40;;;;;;5013789;28;20066;-52
2021/06/25 05:30:30;;;;;;;8.45;2.88;;;24.70;58.90;;;;;;4996431;28;20037;-61
2021/06/25 05:32:56;;;;;;;7.32;2.60;;;24.70;58.10;;;;;;5013961;28;20026;-50
2021/06/25 05:35:22;;;;;;;10.48;3.33;;;24.70;57.90;;;;;;5013871;28;20077;-54
2021/06/25 05:37:48;;;;;;;5.95;2.95;;;24.70;57.60;;;;;;4996049;28;20503;-53
2021/06/25 05:40:14;;;;;;;4.82;2.75;;;24.80;57.30;;;;;;5014172;28;20029;-51
2021/06/25 05:42:40;;;;;;;11.60;3.35;;;24.70;57.40;;;;;;5013573;28;20029;-59
2021/06/25 05:45:06;;;;;;;3.97;2.92;;;24.70;57.40;;;;;;4996156;28;20428;-60
2021/06/25 05:47:31;;;;;;;5.32;3.10;;;24.60;57.20;;;;;;5013531;28;20032;-60
2021/06/25 05:49:58;;;;;;;7.70;3.13;;;24.60;57.40;;;;;;5013956;28;20026;-58
2021/06/25 05:52:23;;;;;;;5.30;2.88;;;24.60;57.80;;;;;;4996538;28;20465;-56
2021/06/25 05:54:49;;;;;;;5.60;3.10;;;24.40;57.50;;;;;;5012843;28;20029;-59
2021/06/25 05:57:15;;;;;;;6.28;3.40;;;24.40;57.60;;;;;;5013379;28;20481;-56
2021/06/25 05:59:40;;;;;;;7.15;3.47;;;24.30;58.10;;;;;;5012824;28;20461;-56
2021/06/25 06:02:07;;;;;;;5.45;3.38;;;24.40;58.00;;;;;;5013448;28;20048;-58
2021/06/25 06:04:32;;;;;;;3.90;2.95;;;24.50;57.70;;;;;;4995494;28;20079;-58
2021/06/25 06:06:58;;;;;;;6.03;3.55;;;24.50;57.60;;;;;;5013304;28;20025;-57
2021/06/25 06:09:24;;;;;;;6.90;2.63;;;24.60;57.10;;;;;;4995250;28;20042;-57
2021/06/25 06:11:50;;;;;;;6.25;2.60;;;24.40;57.20;;;;;;4994913;28;20033;-56
2021/06/25 06:14:16;;;;;;;3.08;2.60;;;24.50;57.10;;;;;;5013045;28;20030;-57
2021/06/25 06:16:41;;;;;;;3.25;2.40;;;24.40;57.30;;;;;;5012515;28;20029;-59
2021/06/25 06:19:08;;;;;;;3.75;2.58;;;24.40;57.30;;;;;;5012080;28;20396;-59
2021/06/25 06:32:42;;;;;;;5.35;2.70;;;24.60;57.40;;;;;;5012058;28;20444;-60
2021/06/25 06:35:08;;;;;;;3.72;2.58;;;24.40;57.70;;;;;;5012128;28;20034;-58
2021/06/25 06:37:34;;;;;;;4.53;2.72;;;24.60;57.40;;;;;;5012123;28;20104;-57
2021/06/25 06:40:00;;;;;;;4.07;2.30;;;24.80;56.70;;;;;;5012967;28;20472;-55
2021/06/25 06:42:26;;;;;;;5.18;2.60;;;25.00;56.10;;;;;;4995111;28;20026;-56
2021/06/25 06:44:51;;;;;;;3.83;2.63;;;25.20;55.70;;;;;;4994626;28;20030;-57
2021/06/25 06:47:17;;;;;;;3.83;2.90;;;25.30;55.40;;;;;;4995152;28;20041;-58
2021/06/25 06:49:43;;;;;;;4.43;2.53;;;25.50;54.10;;;;;;4994788;28;20026;-63
2021/06/25 06:52:08;;;;;;;3.53;2.90;;;25.70;54.10;;;;;;5011469;28;20085;-62
2021/06/25 06:54:34;;;;;;;6.15;2.65;;;27.40;52.40;;;;;;5013286;28;20042;-61
2021/06/25 06:57:00;;;;;;;3.42;2.33;;;31.00;45.80;;;;;;5013200;28;20112;-62
2021/06/25 06:59:26;;;;;;;5.35;2.40;;;34.00;39.30;;;;;;5012474;28;20029;-63
2021/06/25 07:01:51;;;;;;;4.15;2.40;;;35.70;36.40;;;;;;5011729;28;20076;-62
2021/06/25 07:04:17;;;;;;;7.32;2.75;;;37.10;33.10;;;;;;5011884;28;20037;-63
2021/06/25 07:06:43;;;;;;;4.57;2.45;;;37.40;31.90;;;;;;5011849;28;20053;-62
2021/06/25 07:09:09;;;;;;;3.17;2.10;;;36.50;32.00;;;;;;5012513;28;20392;-61
2021/06/25 07:11:34;;;;;;;7.78;2.28;;;37.40;32.50;;;;;;5011673;28;20038;-63
2021/06/25 07:14:00;;;;;;;3.22;2.05;;;38.50;30.30;;;;;;5011590;28;20381;-62
2021/06/25 07:16:26;;;;;;;3.13;2.08;;;38.50;30.40;;;;;;5011657;28;20030;-63
2021/06/25 07:18:51;;;;;;;3.63;2.03;;;39.30;30.00;;;;;;5011094;28;20058;-62
2021/06/25 07:21:36;;;;;;;7.15;2.42;;;40.10;28.80;;;;;;5011751;28;20030;-62
2021/06/25 07:24:02;;;;;;;3.20;2.15;;;39.60;28.80;;;;;;5011905;28;20057;-62
2021/06/25 07:26:28;;;;;;;6.28;2.10;;;39.90;28.80;;;;;;4994142;28;20033;-62
2021/06/25 07:28:54;;;;;;;5.18;2.05;;;41.00;28.10;;;;;;5011094;28;20033;-60
2021/06/25 07:31:21;;;;;;;4.10;2.17;;;41.50;27.80;;;;;;5011685;28;20464;-62
2021/06/25 07:33:47;;;;;;;4.55;2.13;;;40.60;27.70;;;;;;5012527;28;20109;-62
2021/06/25 07:36:14;;;;;;;4.63;2.10;;;40.50;28.10;;;;;;5015581;28;20030;-62
2021/06/25 07:38:39;;;;;;;7.55;2.47;;;40.30;28.00;;;;;;5014663;28;20456;-62
2021/06/25 07:41:05;;;;;;;2.88;1.80;;;40.30;28.20;;;;;;4998311;28;20022;-62
2021/06/25 07:43:31;;;;;;;4.07;2.03;;;41.10;28.10;;;;;;5015614;28;20097;-60
2021/06/25 07:45:57;;;;;;;5.25;2.05;;;40.40;27.80;;;;;;4997936;28;20053;-68
2021/06/25 07:48:23;;;;;;;4.30;1.60;;;40.30;28.70;;;;;;4998298;28;20169;-61
2021/06/25 07:50:48;;;;;;;2.92;2.33;;;41.60;27.40;;;;;;5015464;28;20038;-60
2021/06/25 07:53:14;;;;;;;4.78;2.38;;;39.90;28.30;;;;;;5015665;28;20088;-60
2021/06/25 07:55:43;;;;;;;3.90;1.90;;;38.60;28.70;;;;;;4997048;28;20033;-60
2021/06/25 07:58:13;;;;;;;2.72;2.17;;;37.10;30.20;;;;;;5013835;28;20026;-60
2021/06/25 08:00:39;;;;;;;2.40;1.33;;;37.50;30.10;;;;;;5013204;28;20030;-56
2021/06/25 08:03:05;;;;;;;2.47;1.90;;;38.90;29.60;;;;;;4997004;28;20059;-60
2021/06/25 08:05:31;;;;;;;5.40;3.83;;;39.10;29.10;;;;;;5013523;28;20033;-59
2021/06/25 08:07:56;;;;;;;3.63;2.03;;;39.60;28.40;;;;;;5014699;28;20449;-58
2021/06/25 08:10:22;;;;;;;4.53;1.85;;;40.10;28.40;;;;;;5015310;28;20026;-60
2021/06/25 08:12:48;;;;;;;4.95;1.88;;;39.80;28.20;;;;;;5013412;28;20038;-57
2021/06/25 08:15:14;;;;;;;6.47;1.70;;;38.20;29.40;;;;;;5015048;28;20117;-57
2021/06/25 08:17:40;;;;;;;6.20;2.45;;;38.40;29.50;;;;;;4995845;28;20045;-59
2021/06/25 08:20:06;;;;;;;2.75;2.40;;;39.90;28.40;;;;;;5014914;28;20105;-57
2021/06/25 08:22:33;;;;;;;4.18;2.25;;;40.70;27.80;;;;;;5012714;28;20030;-59
2021/06/25 08:24:59;;;;;;;5.68;3.05;;;41.40;26.90;;;;;;5013944;28;20040;-58
2021/06/25 08:27:25;;;;;;;3.97;2.80;;;41.60;27.00;;;;;;5014732;28;20120;-58
2021/06/25 08:29:50;;;;;;;5.07;3.10;;;42.40;26.60;;;;;;4995549;28;20164;-59
2021/06/25 08:32:16;;;;;;;3.88;2.75;;;43.40;26.10;;;;;;5014173;28;20595;-56
2021/06/25 08:34:42;;;;;;;3.83;2.70;;;43.50;25.80;;;;;;4996312;28;20037;-57
2021/06/25 08:37:08;;;;;;;3.58;3.13;;;43.90;25.70;;;;;;5013337;28;20038;-56
2021/06/25 08:39:34;;;;;;;3.50;2.70;;;44.20;25.30;;;;;;5014083;28;20196;-59
2021/06/25 08:42:03;;;;;;;3.50;2.90;;;43.50;25.70;;;;;;5012959;28;20030;-56
2021/06/25 08:44:38;;;;;;;9.00;2.80;;;43.90;25.40;;;;;;5014111;28;20037;-57
2021/06/25 08:47:08;;;;;;;4.40;2.88;;;43.70;25.80;;;;;;4994852;28;20032;-58
2021/06/25 08:49:36;;;;;;;4.68;3.00;;;44.50;25.40;;;;;;5012883;28;20200;-59
2021/06/25 08:52:04;;;;;;;4.85;3.05;;;44.40;25.00;;;;;;5012391;28;20057;-60
2021/06/25 08:54:32;;;;;;;3.58;2.60;;;44.40;25.10;;;;;;5013944;28;20382;-58
2021/06/25 08:56:59;;;;;;;4.38;2.08;;;44.60;25.30;;;;;;5013301;28;20022;-58
2021/06/25 08:59:25;;;;;;;3.00;1.83;;;45.30;24.70;;;;;;4996256;28;20125;-60
2021/06/25 09:01:51;;;;;;;3.15;1.92;;;44.10;24.90;;;;;;5011914;28;20065;-59
2021/06/25 09:04:52;;;;;;;3.08;1.70;;;41.00;26.40;;;;;;5013624;28;20333;-56
2021/06/25 09:07:18;;;;;;;4.85;2.40;;;40.10;27.30;;;;;;4934349;29;20075;-60
2021/06/25 09:09:48;;;;;;;3.72;2.15;;;40.30;27.70;;;;;;4995422;28;20150;-59
2021/06/25 09:12:18;;;;;;;4.40;2.20;;;39.40;27.80;;;;;;5013227;28;20096;-59
2021/06/25 09:15:11;;;;;;;4.13;2.80;;;38.60;28.70;;;;;;5012183;28;20037;-60
2021/06/25 09:18:09;;;;;;;3.33;2.13;;;39.10;28.40;;;;;;5002221;28;20038;-59
2021/06/25 09:20:39;;;;;;;4.57;1.80;;;40.00;28.00;;;;;;5012514;28;20439;-55
2021/06/25 09:23:08;;;;;;;5.25;1.27;;;41.00;27.20;;;;;;4995656;28;20032;-60
2021/06/25 09:26:05;;;;;;;8.40;1.30;;;38.90;27.90;;;;;;5013726;28;20029;-60
2021/06/25 09:28:38;;;;;;;4.20;1.33;;;35.60;30.60;;;;;;5012045;28;20365;-60
2021/06/25 09:31:17;;;;;;;2.95;1.13;;;33.60;33.40;;;;;;5011939;28;20038;-59
2021/06/25 09:33:50;;;;;;;4.22;1.60;;;32.90;34.60;;;;;;4995890;28;20033;-57
2021/06/25 09:36:30;;;;;;;4.65;1.58;;;32.50;35.40;;;;;;5012505;28;20022;-56
2021/06/25 09:39:02;;;;;;;2.67;1.58;;;31.50;36.80;;;;;;5011082;28;20116;-56
2021/06/25 09:41:28;;;;;;;6.25;2.20;;;31.20;37.60;;;;;;5011256;28;20026;-54
2021/06/25 09:44:00;;;;;;;5.25;2.13;;;31.00;38.00;;;;;;5012187;28;20437;-60
2021/06/25 09:46:29;;;;;;;3.53;1.67;;;30.80;38.60;;;;;;5012325;28;20357;-60
2021/06/25 09:48:57;;;;;;;2.97;1.40;;;30.50;39.00;;;;;;5011969;28;20392;-57
2021/06/25 09:51:24;;;;;;;2.90;1.75;;;30.50;39.10;;;;;;5012470;28;20022;-57
2021/06/25 09:54:12;;;;;;;3.47;1.42;;;30.20;39.30;;;;;;5010373;28;20030;-54
2021/06/25 09:56:48;;;;;;;4.00;1.85;;;30.40;39.20;;;;;;5012081;28;20022;-56
2021/06/25 09:59:27;;;;;;;7.07;1.27;;;30.40;39.20;;;;;;5011693;28;20061;-58
2021/06/25 10:01:54;;;;;;;3.30;1.30;;;30.30;39.50;;;;;;5012690;28;20038;-58
2021/06/25 10:04:35;;;;;;;2.17;1.25;;;30.00;39.70;;;;;;4995083;28;20022;-55
2021/06/25 10:07:17;;;;;;;4.60;1.50;;;29.70;40.50;;;;;;5010682;28;20025;-60
2021/06/25 10:09:48;;;;;;;6.72;1.20;;;29.60;40.80;;;;;;5009667;28;20037;-60
2021/06/25 10:12:16;;;;;;;4.35;1.50;;;29.40;41.20;;;;;;5010603;28;20136;-61
2021/06/25 10:14:43;;;;;;;2.80;1.20;;;29.50;41.30;;;;;;5011206;28;20115;-59
2021/06/25 10:17:09;;;;;;;3.85;1.50;;;29.70;40.80;;;;;;5011448;28;20050;-57
2021/06/25 10:19:42;;;;;;;2.25;1.20;;;29.90;40.70;;;;;;5009028;28;20033;-54
2021/06/25 10:22:10;;;;;;;1.80;1.20;;;29.90;40.50;;;;;;5010491;28;20041;-56
2021/06/25 10:24:37;;;;;;;3.30;1.20;;;29.90;40.60;;;;;;5009839;28;20032;-60
2021/06/25 10:27:05;;;;;;;2.53;1.30;;;29.80;40.50;;;;;;5008632;28;20109;-59
2021/06/25 10:29:38;;;;;;;4.82;1.70;;;30.10;40.50;;;;;;5011705;28;20435;-59
2021/06/25 10:32:09;;;;;;;3.45;1.27;;;30.60;39.50;;;;;;5010952;28;20030;-60
2021/06/25 10:34:37;;;;;;;3.03;1.20;;;31.00;38.70;;;;;;5011883;28;20053;-59
2021/06/25 10:37:05;;;;;;;2.35;1.30;;;30.40;39.30;;;;;;5010206;28;20116;-60
2021/06/25 10:39:32;;;;;;;2.58;1.38;;;30.50;39.50;;;;;;5010466;28;20030;-60
2021/06/25 10:42:00;;;;;;;6.13;1.40;;;30.80;39.10;;;;;;5010748;28;20032;-60
2021/06/25 10:44:36;;;;;;;6.20;1.65;;;30.80;39.10;;;;;;5010664;28;20026;-60
2021/06/25 10:47:25;;;;;;;2.13;1.27;;;30.90;39.00;;;;;;5011796;28;20026;-60
2021/06/25 10:50:00;;;;;;;4.50;1.50;;;30.80;39.00;;;;;;5008741;28;20022;-61
2021/06/25 10:52:27;;;;;;;2.72;1.50;;;30.40;39.10;;;;;;4992423;28;20132;-60
2021/06/25 10:55:09;;;;;;;2.75;1.60;;;30.30;39.60;;;;;;4993567;28;20026;-59
2021/06/25 10:57:55;;;;;;;6.65;1.48;;;30.90;38.80;;;;;;5010154;28;20120;-57
2021/06/25 11:00:24;;;;;;;2.45;1.35;;;31.10;38.80;;;;;;5010525;28;20096;-60
2021/06/25 11:02:51;;;;;;;3.50;1.42;;;31.10;38.20;;;;;;5011256;28;20095;-59
2021/06/25 11:05:29;;;;;;;3.78;1.60;;;31.30;38.00;;;;;;5011584;28;20028;-59
2021/06/25 11:07:55;;;;;;;2.15;1.50;;;31.40;37.50;;;;;;5011254;28;20423;-59
2021/06/25 11:10:23;;;;;;;3.28;1.70;;;31.40;37.80;;;;;;5011592;28;20476;-61
2021/06/25 11:12:52;;;;;;;7.25;2.47;;;31.30;38.20;;;;;;5011919;28;20030;-59
2021/06/25 11:15:33;;;;;;;5.20;1.90;;;31.60;37.50;;;;;;5010705;28;20092;-57
2021/06/25 11:18:01;;;;;;;3.90;1.35;;;31.80;37.20;;;;;;5011023;28;20061;-60
2021/06/25 11:20:32;;;;;;;2.90;1.20;;;31.50;37.40;;;;;;5011695;28;20030;-59
2021/06/25 11:23:18;;;;;;;4.20;1.40;;;30.90;38.20;;;;;;5009856;28;20029;-61
2021/06/25 11:26:35;;;;;;;2.30;1.60;;;29.90;39.90;;;;;;5009812;28;20506;-61
2021/06/25 11:29:09;;;;;;;2.35;1.45;;;30.00;40.20;;;;;;5009652;28;20038;-61
2021/06/25 11:31:35;;;;;;;5.25;1.60;;;29.70;40.30;;;;;;4993476;28;20048;-60
2021/06/25 11:34:04;;;;;;;5.18;1.98;;;29.80;40.10;;;;;;4993547;28;20022;-58
2021/06/25 11:36:49;;;;;;;2.30;1.58;;;30.20;39.60;;;;;;4993721;28;20550;-61
2021/06/25 11:39:30;;;;;;;2.30;1.27;;;30.30;38.90;;;;;;5010889;28;20095;-60
2021/06/25 11:42:08;;;;;;;2.97;1.83;;;30.60;38.60;;;;;;5010753;28;20088;-62
2021/06/25 11:44:40;;;;;;;2.25;1.20;;;30.90;37.90;;;;;;5009500;28;20041;-60
2021/06/25 11:47:12;;;;;;;3.35;1.50;;;31.10;38.00;;;;;;5008632;28;20076;-62
2021/06/25 11:52:22;;;;;;;4.88;2.08;;;31.20;37.20;;;;;;5010834;28;20038;-60
2021/06/25 11:55:02;;;;;;;3.53;2.13;;;31.20;37.40;;;;;;5010865;28;20469;-60
2021/06/25 11:57:42;;;;;;;2.42;1.52;;;31.30;37.10;;;;;;5010373;28;20125;-61
2021/06/25 12:00:27;;;;;;;2.03;1.30;;;31.40;37.10;;;;;;5009168;28;20034;-61
2021/06/25 12:02:58;;;;;;;3.50;1.27;;;31.20;36.90;;;;;;5008061;28;20401;-60
2021/06/25 12:05:25;;;;;;;3.47;1.65;;;31.30;36.80;;;;;;5011033;28;20025;-62
2021/06/25 12:08:15;;;;;;;4.72;1.20;;;30.80;37.10;;;;;;5010110;28;20125;-61
2021/06/25 12:11:03;;;;;;;3.28;1.30;;;30.60;37.70;;;;;;4995371;28;20033;-61
2021/06/25 12:13:30;;;;;;;2.13;1.48;;;30.50;37.80;;;;;;5009813;28;20030;-60
2021/06/25 12:15:56;;;;;;;2.38;1.50;;;30.50;37.80;;;;;;5010588;28;20503;-61
2021/06/25 12:18:24;;;;;;;3.10;1.50;;;30.70;38.20;;;;;;5011161;28;20073;-63
2021/06/25 12:21:06;;;;;;;57.72;44.10;;;30.60;37.80;;;;;;5012921;28;20112;-60
2021/06/25 12:23:32;;;;;;;7.93;5.13;;;30.60;37.70;;;;;;5014886;28;20026;-57
2021/06/25 12:25:58;;;;;;;4.82;2.05;;;30.70;37.70;;;;;;5014075;28;20026;-61
2021/06/25 12:28:28;;;;;;;3.90;1.65;;;30.60;37.60;;;;;;5014535;28;20453;-60
2021/06/25 12:30:57;;;;;;;4.78;1.80;;;30.20;38.50;;;;;;5013163;28;20041;-64
2021/06/25 12:33:30;;;;;;;3.95;1.67;;;30.10;39.20;;;;;;5013641;28;20034;-58
2021/06/25 12:35:57;;;;;;;2.80;1.77;;;29.80;39.60;;;;;;5014300;28;20029;-60
2021/06/25 12:38:24;;;;;;;3.30;1.42;;;29.70;40.10;;;;;;5013224;28;20126;-60
2021/06/25 12:40:55;;;;;;;3.15;1.30;;;29.50;40.20;;;;;;5014221;28;20030;-61
2021/06/25 12:43:35;;;;;;;7.63;1.40;;;29.10;41.60;;;;;;5013709;28;20022;-59
2021/06/25 12:46:10;;;;;;;4.85;1.95;;;29.00;41.30;;;;;;4996783;28;20022;-62
2021/06/25 12:49:00;;;;;;;4.50;1.73;;;29.20;41.40;;;;;;5013954;28;20112;-62
2021/06/25 12:51:34;;;;;;;3.42;1.30;;;29.30;41.00;;;;;;4997554;28;20034;-59
2021/06/25 12:54:01;;;;;;;5.07;1.75;;;29.20;41.20;;;;;;5012002;28;20085;-59
2021/06/25 12:56:33;;;;;;;7.28;2.70;;;29.10;41.60;;;;;;4996415;28;20029;-59
2021/06/25 12:59:00;;;;;;;4.88;1.80;;;29.10;41.40;;;;;;5013634;28;20467;-60
2021/06/25 13:01:36;;;;;;;3.70;1.70;;;29.00;41.50;;;;;;5013855;28;20259;-61
2021/06/25 13:04:03;;;;;;;3.50;1.50;;;29.00;41.60;;;;;;5013222;28;20076;-59
2021/06/25 13:06:35;;;;;;;4.18;1.40;;;28.90;41.20;;;;;;5012110;28;20061;-56
2021/06/25 13:09:18;;;;;;;5.20;2.23;;;28.70;41.90;;;;;;5012586;28;20037;-62